createdAt,value
2022-10-23T00:01:23.153Z,2.00
2022-10-23T00:03:53.471Z,2.37
2022-10-23T00:06:22.082Z,2.37
2022-10-23T00:08:50.912Z,2.30
2022-10-23T00:11:21.637Z,2.30
2022-10-23T00:13:51.383Z,2.37
2022-10-23T00:16:20.862Z,2.27
2022-10-23T00:18:51.705Z,2.40
2022-10-23T00:21:21.356Z,2.00
2022-10-23T00:23:49.219Z,2.00
2022-10-23T00:26:17.467Z,2.20
2022-10-23T00:28:47.078Z,2.50
2022-10-23T00:31:15.311Z,2.10
2022-10-23T00:33:45.261Z,2.33
2022-10-23T00:36:15.709Z,2.57
2022-10-23T00:38:43.857Z,2.03
2022-10-23T00:41:16.456Z,2.40
2022-10-23T00:44:01.115Z,2.17
2022-10-23T00:46:29.604Z,2.10
2022-10-23T00:48:59.383Z,2.07
2022-10-23T00:51:33.210Z,2.30
2022-10-23T00:56:53.666Z,2.00
2022-10-23T00:59:22.751Z,2.10
2022-10-23T01:01:52.593Z,2.20
2022-10-23T01:04:24.291Z,2.20
2022-10-23T01:07:02.790Z,2.33
2022-10-23T01:09:35.091Z,1.87
2022-10-23T01:12:11.574Z,2.13
2022-10-23T01:14:48.146Z,1.93
2022-10-23T01:17:24.481Z,1.93
2022-10-23T01:20:08.436Z,2.30
2022-10-23T01:22:55.173Z,1.90
2022-10-23T01:25:33.995Z,1.50
2022-10-23T01:28:06.374Z,2.30
2022-10-23T01:30:37.197Z,2.00
2022-10-23T01:33:09.540Z,1.80
2022-10-23T01:35:41.957Z,1.90
2022-10-23T01:38:15.398Z,1.80
2022-10-23T01:40:48.583Z,1.90
2022-10-23T01:43:21.182Z,2.00
2022-10-23T01:45:52.544Z,1.90
2022-10-23T01:48:32.401Z,2.33
2022-10-23T01:51:02.744Z,1.80
2022-10-23T01:53:35.048Z,2.00
2022-10-23T01:56:05.246Z,2.00
2022-10-23T01:58:37.937Z,2.10
2022-10-23T02:01:09.006Z,1.50
2022-10-23T02:03:43.106Z,1.70
2022-10-23T02:06:10.965Z,1.80
2022-10-23T02:08:39.133Z,1.77
2022-10-23T02:11:11.517Z,1.57
2022-10-23T02:13:47.179Z,1.63
2022-10-23T02:16:23.724Z,1.60
2022-10-23T02:18:57.287Z,1.63
2022-10-23T02:21:30.561Z,1.70
2022-10-23T02:24:02.532Z,1.90
2022-10-23T02:26:35.416Z,1.70
2022-10-23T02:29:11.739Z,1.90
2022-10-23T02:31:39.603Z,1.60
2022-10-23T02:34:07.966Z,1.70
2022-10-23T02:36:35.898Z,1.50
2022-10-23T02:39:04.778Z,1.70
2022-10-23T02:41:43.032Z,1.70
2022-10-23T02:44:24.440Z,1.60
2022-10-23T02:46:57.417Z,1.50
2022-10-23T02:49:32.434Z,1.50
2022-10-23T02:52:08.821Z,1.50
2022-10-23T02:54:49.112Z,1.47
2022-10-23T02:57:24.741Z,1.93
2022-10-23T03:00:03.205Z,1.50
2022-10-23T03:02:36.876Z,1.80
2022-10-23T03:05:07.490Z,1.80
2022-10-23T03:07:36.159Z,1.60
2022-10-23T03:10:04.557Z,1.50
2022-10-23T03:12:33.700Z,1.50
2022-10-23T03:15:03.071Z,1.70
2022-10-23T03:17:31.644Z,1.83
2022-10-23T03:20:00.472Z,1.50
2022-10-23T03:22:28.378Z,1.80
2022-10-23T03:24:56.104Z,1.67
2022-10-23T03:27:23.887Z,1.47
2022-10-23T03:29:52.459Z,1.47
2022-10-23T03:32:21.620Z,1.50
2022-10-23T03:34:49.790Z,1.47
2022-10-23T03:37:18.069Z,1.53
2022-10-23T03:39:46.257Z,1.50
2022-10-23T03:42:14.244Z,1.70
2022-10-23T03:44:42.357Z,1.50
2022-10-23T03:47:12.100Z,1.50
2022-10-23T03:49:48.510Z,1.67
2022-10-23T03:52:16.515Z,1.40
2022-10-23T03:54:44.344Z,1.27
2022-10-23T03:57:12.571Z,2.10
2022-10-23T03:59:40.646Z,1.67
2022-10-23T04:02:08.522Z,1.30
2022-10-23T04:04:36.885Z,1.60
2022-10-23T04:07:06.555Z,1.30
2022-10-23T04:09:36.355Z,1.20
2022-10-23T04:12:04.440Z,1.70
2022-10-23T04:14:32.487Z,1.20
2022-10-23T04:17:01.108Z,1.30
2022-10-23T04:19:29.105Z,1.50
2022-10-23T04:21:57.176Z,1.40
2022-10-23T04:24:27.190Z,1.23
2022-10-23T04:26:55.211Z,1.30
2022-10-23T04:29:24.607Z,1.20
2022-10-23T04:31:52.784Z,1.50
2022-10-23T04:34:20.605Z,1.27
2022-10-23T04:36:48.394Z,1.30
2022-10-23T04:39:16.494Z,1.40
2022-10-23T04:41:45.828Z,1.40
2022-10-23T04:44:14.351Z,1.60
2022-10-23T04:46:42.492Z,1.27
2022-10-23T04:49:10.614Z,1.47
2022-10-23T04:51:39.017Z,1.50
2022-10-23T04:54:11.307Z,1.60
2022-10-23T04:56:40.179Z,1.27
2022-10-23T04:59:09.807Z,1.33
2022-10-23T05:01:37.725Z,1.57
2022-10-23T05:04:05.921Z,1.30
2022-10-23T05:06:34.023Z,1.63
2022-10-23T05:09:02.899Z,1.37
2022-10-23T05:11:30.586Z,1.30
2022-10-23T05:13:58.593Z,1.43
2022-10-23T05:16:37.875Z,1.70
2022-10-23T05:19:07.510Z,1.27
2022-10-23T05:21:36.923Z,1.87
2022-10-23T05:24:05.464Z,1.37
2022-10-23T05:26:33.551Z,1.23
2022-10-23T05:29:01.413Z,1.30
2022-10-23T05:31:31.074Z,1.30
2022-10-23T05:33:58.831Z,1.50
2022-10-23T05:36:27.410Z,1.70
2022-10-23T05:38:56.116Z,1.60
2022-10-23T05:41:24.191Z,1.70
2022-10-23T05:43:54.271Z,1.30
2022-10-23T05:46:23.130Z,1.37
2022-10-23T05:48:53.420Z,1.40
2022-10-23T05:51:23.160Z,1.60
2022-10-23T05:53:51.701Z,1.60
2022-10-23T05:56:20.273Z,1.40
2022-10-23T05:58:48.148Z,1.47
2022-10-23T06:01:18.603Z,1.50
2022-10-23T06:03:46.555Z,1.70
2022-10-23T06:06:16.277Z,1.50
2022-10-23T06:08:44.071Z,1.53
2022-10-23T06:11:14.563Z,1.40
2022-10-23T06:13:45.915Z,1.50
2022-10-23T06:16:16.787Z,1.57
2022-10-23T06:18:46.031Z,1.50
2022-10-23T06:21:16.609Z,1.57
2022-10-23T06:23:46.116Z,1.40
2022-10-23T06:26:15.974Z,1.90
2022-10-23T06:28:45.206Z,1.57
2022-10-23T06:31:15.618Z,1.50
2022-10-23T06:33:43.825Z,1.50
2022-10-23T06:36:13.080Z,1.83
2022-10-23T06:38:45.028Z,2.30
2022-10-23T06:41:15.097Z,2.07
2022-10-23T06:43:43.377Z,1.70
2022-10-23T06:46:11.403Z,1.73
2022-10-23T06:48:39.444Z,1.90
2022-10-23T06:51:09.388Z,1.70
2022-10-23T06:53:38.612Z,1.60
2022-10-23T06:56:09.509Z,1.57
2022-10-23T06:58:39.100Z,1.80
2022-10-23T07:01:09.136Z,1.67
2022-10-23T07:03:37.411Z,1.93
2022-10-23T07:06:06.810Z,1.63
2022-10-23T07:08:34.887Z,1.47
2022-10-23T07:11:04.994Z,1.90
2022-10-23T07:13:35.405Z,1.67
2022-10-23T07:16:13.061Z,2.13
2022-10-23T07:18:41.315Z,2.20
2022-10-23T07:21:09.432Z,2.00
2022-10-23T07:23:37.409Z,1.80
2022-10-23T07:26:08.503Z,1.80
2022-10-23T07:28:39.036Z,2.23
2022-10-23T07:31:07.035Z,1.87
2022-10-23T07:33:35.326Z,1.67
2022-10-23T07:36:05.515Z,1.90
2022-10-23T07:38:33.626Z,1.70
2022-10-23T07:41:01.679Z,1.70
2022-10-23T07:43:29.673Z,2.00
2022-10-23T07:45:59.084Z,2.03
2022-10-23T07:48:28.692Z,2.10
2022-10-23T07:51:01.935Z,2.03
2022-10-23T07:53:30.315Z,2.00
2022-10-23T07:56:01.190Z,1.90
2022-10-23T07:58:30.576Z,1.80
2022-10-23T08:01:02.534Z,1.90
2022-10-23T08:03:32.366Z,2.00
2022-10-23T08:06:03.705Z,1.80
2022-10-23T08:08:31.794Z,1.90
2022-10-23T08:10:59.556Z,1.80
2022-10-23T08:13:28.468Z,2.20
2022-10-23T08:15:56.823Z,2.27
2022-10-23T08:18:27.400Z,2.43
2022-10-23T08:20:55.286Z,2.20
2022-10-23T08:23:23.460Z,2.00
2022-10-23T08:25:51.587Z,2.30
2022-10-23T08:28:19.399Z,2.37
2022-10-23T08:30:47.150Z,2.13
2022-10-23T08:33:14.940Z,2.00
2022-10-23T08:35:44.264Z,2.10
2022-10-23T08:38:12.454Z,1.97
2022-10-23T08:40:46.075Z,1.97
2022-10-23T08:43:21.122Z,1.90
2022-10-23T08:45:52.395Z,1.73
2022-10-23T08:48:24.168Z,1.70
2022-10-23T08:50:57.062Z,1.80
2022-10-23T08:53:30.735Z,2.00
2022-10-23T08:56:03.243Z,1.80
2022-10-23T08:58:37.345Z,1.63
2022-10-23T09:01:24.882Z,2.60
2022-10-23T09:03:53.126Z,1.60
2022-10-23T09:06:32.179Z,1.70
2022-10-23T09:09:13.465Z,1.53
2022-10-23T09:11:47.467Z,2.03
2022-10-23T09:14:49.504Z,1.70
2022-10-23T09:17:24.840Z,1.50
2022-10-23T09:20:00.212Z,2.00
2022-10-23T09:22:30.331Z,1.40
2022-10-23T09:24:58.116Z,1.60
2022-10-23T09:27:27.530Z,1.23
2022-10-23T09:29:58.063Z,1.50
2022-10-23T09:32:37.051Z,1.20
2022-10-23T09:35:06.561Z,1.43
2022-10-23T09:37:37.687Z,1.10
2022-10-23T09:40:20.066Z,1.60
2022-10-23T09:42:53.474Z,1.40
2022-10-23T09:45:27.866Z,1.37
2022-10-23T09:48:07.168Z,1.30
2022-10-23T09:50:34.983Z,1.27
2022-10-23T09:53:04.926Z,1.40
2022-10-23T09:55:32.828Z,1.20
2022-10-23T09:58:01.751Z,1.50
2022-10-23T10:00:29.780Z,1.50
2022-10-23T10:03:00.402Z,1.50
2022-10-23T10:05:33.037Z,1.43
2022-10-23T10:08:08.637Z,1.40
2022-10-23T10:10:40.374Z,1.40
2022-10-23T10:13:25.211Z,1.73
2022-10-23T10:15:59.306Z,1.33
2022-10-23T10:18:36.530Z,1.60
2022-10-23T10:21:15.247Z,1.50
2022-10-23T10:23:50.329Z,1.20
2022-10-23T10:26:31.914Z,1.30
2022-10-23T10:29:11.897Z,1.20
2022-10-23T10:31:55.906Z,1.20
2022-10-23T10:34:31.097Z,1.30
2022-10-23T10:37:07.208Z,1.73
2022-10-23T10:39:47.087Z,1.30
2022-10-23T10:42:40.226Z,1.23
2022-10-23T10:45:19.771Z,1.40
2022-10-23T10:48:01.117Z,1.20
2022-10-23T10:50:33.072Z,1.80
2022-10-23T10:53:09.910Z,1.20
2022-10-23T10:55:42.921Z,1.40
2022-10-23T10:58:19.923Z,1.00
2022-10-23T11:00:52.049Z,1.33
2022-10-23T11:03:34.980Z,1.20
2022-10-23T11:06:13.442Z,1.30
2022-10-23T11:08:56.317Z,1.10
2022-10-23T11:11:33.549Z,1.33
2022-10-23T11:14:01.651Z,1.37
2022-10-23T11:16:32.762Z,1.20
2022-10-23T11:19:11.318Z,1.27
2022-10-23T11:21:44.650Z,1.20
2022-10-23T11:24:45.308Z,1.10
2022-10-23T11:27:39.100Z,1.40
2022-10-23T11:30:20.252Z,1.00
2022-10-23T11:33:05.215Z,1.00
2022-10-23T11:35:45.822Z,1.37
2022-10-23T11:38:19.509Z,1.20
2022-10-23T11:43:29.729Z,1.30
2022-10-23T11:45:58.119Z,1.20
2022-10-23T11:48:38.574Z,1.20
2022-10-23T11:51:07.325Z,1.20
2022-10-23T11:53:44.553Z,1.13
2022-10-23T11:56:26.986Z,1.43
2022-10-23T11:58:59.081Z,1.40
2022-10-23T12:01:35.494Z,1.23
2022-10-23T12:04:07.780Z,1.20
2022-10-23T12:06:40.933Z,1.20
2022-10-23T12:09:23.170Z,1.00
2022-10-23T12:12:03.903Z,1.30
2022-10-23T12:14:36.068Z,1.17
2022-10-23T12:17:20.093Z,1.33
2022-10-23T12:19:50.398Z,1.30
2022-10-23T12:22:20.818Z,1.00
2022-10-23T12:25:05.378Z,1.60
2022-10-23T12:27:41.409Z,1.50
2022-10-23T12:30:30.229Z,1.10
2022-10-23T12:33:12.496Z,1.20
2022-10-23T12:36:20.322Z,1.30
2022-10-23T12:38:49.794Z,1.20
2022-10-23T12:41:20.381Z,1.00
2022-10-23T12:43:54.843Z,1.27
2022-10-23T12:46:36.191Z,0.90
2022-10-23T12:49:13.394Z,1.60
2022-10-23T12:51:41.508Z,1.27
2022-10-23T12:54:16.320Z,1.87
2022-10-23T12:56:45.344Z,1.03
2022-10-23T12:59:17.502Z,1.40
2022-10-23T13:01:50.383Z,1.20
2022-10-23T13:04:26.912Z,1.57
2022-10-23T13:06:56.755Z,1.30
2022-10-23T13:09:30.865Z,1.50
2022-10-23T13:12:00.448Z,1.00
2022-10-23T13:14:34.760Z,1.30
2022-10-23T13:17:06.363Z,1.07
2022-10-23T13:19:34.727Z,1.27
2022-10-23T13:22:05.277Z,1.50
2022-10-23T13:24:33.333Z,1.40
2022-10-23T13:27:02.889Z,1.20
2022-10-23T13:29:32.856Z,1.20
2022-10-23T13:32:12.644Z,1.03
2022-10-23T13:34:40.777Z,1.00
2022-10-23T13:37:25.106Z,0.97
2022-10-23T13:40:03.814Z,1.30
2022-10-23T13:42:31.686Z,1.00
2022-10-23T13:44:59.669Z,1.20
2022-10-23T13:47:29.276Z,1.20
2022-10-23T13:49:57.091Z,1.10
2022-10-23T13:52:25.813Z,1.00
2022-10-23T13:54:53.959Z,1.07
2022-10-23T13:57:24.001Z,1.10
2022-10-23T13:59:52.748Z,0.87
2022-10-23T14:02:22.514Z,1.10
2022-10-23T14:04:52.477Z,1.07
2022-10-23T14:07:20.642Z,1.10
2022-10-23T14:09:50.578Z,0.90
2022-10-23T14:12:19.161Z,1.30
2022-10-23T14:14:52.043Z,1.20
2022-10-23T14:17:19.908Z,1.10
2022-10-23T14:19:47.654Z,1.20
2022-10-23T14:22:18.069Z,0.97
2022-10-23T14:24:45.840Z,1.10
2022-10-23T14:27:14.346Z,0.93
2022-10-23T14:29:42.650Z,1.00
2022-10-23T14:32:10.951Z,1.10
2022-10-23T14:34:41.719Z,1.43
2022-10-23T14:37:09.565Z,1.30
2022-10-23T14:39:38.960Z,0.90
2022-10-23T14:42:07.036Z,1.10
2022-10-23T14:44:35.015Z,1.30
2022-10-23T14:47:03.515Z,0.90
2022-10-23T14:49:31.953Z,1.30
2022-10-23T14:51:59.941Z,1.13
2022-10-23T14:54:29.431Z,1.50
2022-10-23T14:56:58.780Z,1.27
2022-10-23T14:59:26.628Z,1.00
2022-10-23T15:04:22.932Z,1.20
2022-10-23T15:06:50.993Z,1.10
2022-10-23T15:09:20.346Z,1.50
2022-10-23T15:11:48.435Z,1.20
2022-10-23T15:14:18.060Z,1.40
2022-10-23T15:16:46.323Z,1.47
2022-10-23T15:19:18.706Z,1.37
2022-10-23T15:21:47.293Z,1.20
2022-10-23T15:24:15.712Z,1.70
2022-10-23T15:26:44.833Z,1.30
2022-10-23T15:29:14.509Z,2.27
2022-10-23T15:31:49.960Z,1.40
2022-10-23T15:34:20.004Z,1.57
2022-10-23T15:36:48.664Z,1.47
2022-10-23T15:39:18.318Z,1.50
2022-10-23T15:41:46.365Z,1.30
2022-10-23T15:44:16.563Z,1.40
2022-10-23T15:46:44.900Z,1.40
2022-10-23T15:49:14.301Z,1.27
2022-10-23T15:51:42.766Z,1.60
2022-10-23T15:54:16.507Z,1.57
2022-10-23T15:56:46.441Z,7.77
2022-10-23T15:59:14.604Z,3.00
2022-10-23T16:01:42.932Z,1.77
2022-10-23T16:04:10.935Z,1.50
2022-10-23T16:06:40.490Z,1.30
2022-10-23T16:09:08.432Z,1.43
2022-10-23T16:11:38.253Z,1.30
2022-10-23T16:14:06.965Z,1.43
2022-10-23T16:16:35.880Z,1.43
2022-10-23T16:19:05.607Z,1.20
2022-10-23T16:21:35.585Z,1.20
2022-10-23T16:24:08.343Z,1.80
2022-10-23T16:26:37.215Z,1.40
2022-10-23T16:29:07.579Z,1.80
2022-10-23T16:31:36.302Z,1.50
2022-10-23T16:34:06.069Z,1.70
2022-10-23T16:36:34.450Z,2.10
2022-10-23T16:39:04.380Z,1.40
2022-10-23T16:41:32.228Z,1.40
2022-10-23T16:44:00.248Z,1.57
2022-10-23T16:46:28.575Z,1.47
2022-10-23T16:48:56.891Z,1.50
2022-10-23T16:51:27.213Z,1.90
2022-10-23T16:53:55.446Z,2.17
2022-10-23T16:56:29.015Z,1.77
2022-10-23T17:01:28.482Z,2.17
2022-10-23T17:03:57.360Z,2.23
2022-10-23T17:06:27.753Z,2.30
2022-10-23T17:08:56.425Z,2.20
2022-10-23T17:11:28.128Z,2.30
2022-10-23T17:13:59.341Z,2.43
2022-10-23T17:16:29.678Z,1.93
2022-10-23T17:18:58.097Z,2.30
2022-10-23T17:21:25.890Z,2.00
2022-10-23T17:23:55.099Z,2.30
2022-10-23T17:26:23.851Z,2.17
2022-10-23T17:28:53.735Z,2.07
2022-10-23T17:31:24.100Z,2.60
2022-10-23T17:33:54.690Z,2.40
2022-10-23T17:36:23.066Z,2.30
2022-10-23T17:38:51.596Z,2.57
2022-10-23T17:41:20.837Z,2.97
2022-10-23T17:43:49.208Z,2.50
2022-10-23T17:46:20.344Z,2.60
2022-10-23T17:48:48.534Z,2.80
2022-10-23T17:51:18.065Z,2.73
2022-10-23T17:53:49.106Z,2.60
2022-10-23T17:56:22.419Z,2.50
2022-10-23T17:58:51.243Z,2.00
2022-10-23T18:01:24.441Z,2.57
2022-10-23T18:03:52.697Z,2.27
2022-10-23T18:06:25.761Z,2.07
2022-10-23T18:08:57.154Z,1.90
2022-10-23T18:11:26.775Z,2.00
2022-10-23T18:13:55.120Z,1.87
2022-10-23T18:16:24.565Z,1.67
2022-10-23T18:18:52.764Z,1.83
2022-10-23T18:21:23.117Z,1.70
2022-10-23T18:23:51.432Z,1.60
2022-10-23T18:26:21.331Z,1.80
2022-10-23T18:28:51.129Z,1.80
2022-10-23T18:31:20.635Z,1.90
2022-10-23T18:33:50.055Z,1.70
2022-10-23T18:36:22.768Z,1.80
2022-10-23T18:38:51.609Z,1.70
2022-10-23T18:41:22.876Z,1.90
2022-10-23T18:43:51.797Z,1.83
2022-10-23T18:46:20.530Z,1.67
2022-10-23T18:48:51.718Z,2.47
2022-10-23T18:51:21.977Z,2.63
2022-10-23T18:53:50.241Z,2.20
2022-10-23T18:56:22.358Z,2.20
2022-10-23T18:58:50.998Z,1.90
2022-10-23T19:01:19.797Z,2.20
2022-10-23T19:03:50.003Z,2.50
2022-10-23T19:06:18.626Z,2.30
2022-10-23T19:08:47.084Z,2.37
2022-10-23T19:11:16.832Z,2.83
2022-10-23T19:13:44.661Z,2.23
2022-10-23T19:16:17.179Z,2.17
2022-10-23T19:18:51.798Z,2.43
2022-10-23T19:21:21.512Z,2.40
2022-10-23T19:23:50.583Z,2.37
2022-10-23T19:26:19.231Z,2.80
2022-10-23T19:28:49.460Z,2.30
2022-10-23T19:31:17.549Z,2.40
2022-10-23T19:33:45.597Z,2.20
2022-10-23T19:36:16.009Z,2.27
2022-10-23T19:38:46.657Z,2.07
2022-10-23T19:41:16.175Z,2.00
2022-10-23T19:43:44.117Z,2.77
2022-10-23T19:46:12.491Z,2.30
2022-10-23T19:48:44.411Z,2.07
2022-10-23T19:51:14.447Z,2.17
2022-10-23T19:53:43.256Z,2.00
2022-10-23T19:56:13.277Z,2.20
2022-10-23T19:58:41.649Z,2.07
2022-10-23T20:01:12.209Z,2.50
2022-10-23T20:03:40.581Z,2.20
2022-10-23T20:06:12.948Z,1.90
2022-10-23T20:08:42.414Z,2.20
2022-10-23T20:11:10.765Z,2.30
2022-10-23T20:13:38.720Z,2.10
2022-10-23T20:16:07.119Z,2.50
2022-10-23T20:18:35.666Z,2.43
2022-10-23T20:21:04.010Z,2.37
2022-10-23T20:23:33.179Z,2.17
2022-10-23T20:26:10.638Z,2.13
2022-10-23T20:28:40.438Z,2.00
2022-10-23T20:31:09.476Z,2.30
2022-10-23T20:33:38.178Z,2.40
2022-10-23T20:36:07.635Z,1.80
2022-10-23T20:38:36.195Z,2.00
2022-10-23T20:41:05.933Z,2.20
2022-10-23T20:43:35.490Z,1.87
2022-10-23T20:46:07.748Z,2.10
2022-10-23T20:48:36.674Z,1.90
2022-10-23T20:51:05.238Z,1.93
2022-10-23T20:53:33.335Z,1.90
2022-10-23T20:56:01.415Z,2.33
2022-10-23T20:58:29.239Z,1.80
2022-10-23T21:01:03.669Z,1.57
2022-10-23T21:03:31.822Z,1.80
2022-10-23T21:06:04.723Z,1.80
2022-10-23T21:08:33.007Z,1.80
2022-10-23T21:11:01.118Z,1.70
2022-10-23T21:13:31.136Z,1.80
2022-10-23T21:16:00.906Z,1.60
2022-10-23T21:18:44.841Z,2.10
2022-10-23T21:21:14.842Z,1.60
2022-10-23T21:23:42.882Z,2.17
2022-10-23T21:26:10.719Z,2.00
2022-10-23T21:28:40.002Z,1.73
2022-10-23T21:31:12.996Z,2.20
2022-10-23T21:33:42.805Z,1.90
2022-10-23T21:36:16.974Z,1.90
2022-10-23T21:38:45.160Z,1.70
2022-10-23T21:41:16.067Z,2.10
2022-10-23T21:43:44.168Z,1.67
2022-10-23T21:46:16.505Z,1.77
2022-10-23T21:48:44.915Z,1.70
2022-10-23T21:51:18.326Z,1.80
2022-10-23T21:53:46.433Z,1.63
2022-10-23T21:56:25.082Z,1.60
2022-10-23T21:58:53.336Z,1.40
2022-10-23T22:01:23.141Z,1.43
2022-10-23T22:03:51.232Z,1.60
2022-10-23T22:06:21.519Z,1.30
2022-10-23T22:08:49.542Z,1.20
2022-10-23T22:11:17.717Z,1.10
2022-10-23T22:13:47.018Z,1.23
2022-10-23T22:16:16.196Z,1.27
2022-10-23T22:18:45.897Z,1.10
2022-10-23T22:21:16.656Z,1.10
2022-10-23T22:23:45.153Z,1.20
2022-10-23T22:26:23.225Z,1.00
2022-10-23T22:28:54.118Z,1.67
2022-10-23T22:31:24.147Z,1.20
2022-10-23T22:33:55.146Z,1.33
2022-10-23T22:36:23.191Z,1.10
2022-10-23T22:38:51.473Z,1.40
2022-10-23T22:41:19.791Z,1.20
2022-10-23T22:43:47.867Z,1.10
2022-10-23T22:46:18.892Z,1.30
2022-10-23T22:48:47.196Z,1.30
2022-10-23T22:51:19.329Z,1.20
2022-10-23T22:53:47.919Z,1.30
2022-10-23T22:56:18.518Z,1.20
2022-10-23T22:58:46.996Z,1.60
2022-10-23T23:01:17.436Z,1.30
2022-10-23T23:03:45.444Z,2.57
2022-10-23T23:06:13.246Z,1.43
2022-10-23T23:08:43.341Z,1.37
2022-10-23T23:11:14.042Z,1.13
2022-10-23T23:13:42.996Z,1.20
2022-10-23T23:16:19.627Z,1.50
2022-10-23T23:18:47.965Z,1.40
2022-10-23T23:21:16.306Z,1.67
2022-10-23T23:23:45.846Z,1.67
2022-10-23T23:26:14.679Z,1.70
2022-10-23T23:28:42.604Z,1.70
2022-10-23T23:31:13.468Z,1.50
2022-10-23T23:33:42.629Z,2.00
2022-10-23T23:36:13.036Z,1.37
2022-10-23T23:38:41.175Z,1.67
2022-10-23T23:41:13.911Z,1.60
2022-10-23T23:43:42.099Z,1.50
2022-10-23T23:46:10.571Z,1.70
2022-10-23T23:48:39.162Z,1.67
2022-10-23T23:51:07.678Z,1.60
2022-10-23T23:53:35.403Z,1.30
2022-10-23T23:56:03.331Z,1.70
2022-10-23T23:58:33.103Z,1.53
